Share

Appleton City, MO

9:03 AM CDT on April 23, 2014 (GMT -0500)
Bates Co EMA (KMOBUTLE2) Elev 866 ft | 38.26 °N, 94.33 °W | Change Station

Current weather conditions updated 0 second ago

Clear
Clear
57.8 °F
Feels Like 57.8 °F
N
2.0
Wind Variable Wind from East
Gusts 7.0 mph
Sunrise 6:29 AM
Sunset 7:59 PM
Moon Waning Crescent

Today is forecast to be Much Warmer than yesterday. Periods of rain overnight tonight.

Pressure 30.03 in
Visibility 9.0 miles
Clouds Clear
Dew Point 37 °F
Humidity 46%
Rainfall 0.00 in
Snow Depth Not available.
UV 0.0 out of 16
Pollen 10.80 out of 12
Air Quality Not available.
Flu Activity Sporadic
METAR KGLY 231355Z AUTO 12008KT 9SM CLR 13/04 A3003 RMK AO2

More Conditions Fewer Conditions

Pressure 30.03 in
Visibility 9.0 miles
Clouds Clear
Dew Point 37 °F
Humidity 46%
Rainfall 0.00 in
Snow Depth Not available.
UV 0.0 out of 16
Pollen 10.80 out of 12
Air Quality Not available.
Flu Activity Sporadic
METAR KGLY 231355Z AUTO 12008KT 9SM CLR 13/04 A3003 RMK AO2

More Conditions Fewer Conditions

10-Day Weather Forecast

Almanac

Astronomy

Apr. 23, 2014 Rise Set
Actual Time 6:29 AM CDT 7:59 PM CDT
Civil Twilight 6:01 AM CDT 8:27 PM CDT
Nautical Twilight 5:28 AM CDT 9:01 PM CDT
Astronomical Twilight 4:53 AM CDT 9:36 PM CDT
Moon 2:56 AM CDT 2:14 PM CDT
Length of Visible Light 14h 26m
Length of Day
13h 30m
Tomorrow will be 2m 15s longer.
Waning Crescent, 36% of the Moon is Illuminated
Today
Waning Crescent
Apr 29
New
May 6
First Quarter
May 14
Full
May 21
Last Quarter

Today's Extremes

State Highs State Lows

Community

  • spring flowers
    spring flowers
  • Earth Day Spectrum Ove' Blue
    Earth Day Spectrum Ove' Blue
  • BARN B&W
    BARN B&W
  • April Sunset
    April Sunset
  • Waiting..
    Waiting..

WunderPhotos

Upload Photos

1,704,294 photos uploaded!

Nearby

Snow Depth

Station Depth Elevation
No new snow has been reported.

Coastal Water Temperatures

Place Temperature
No Stations Reporting

Earthquake Activity

City Distance Mag. Time & Date
No recent earthquake activity has been reported nearby.
Minimum magnitude displayed is 2.5.

Nearby Weather Stations

Station Location Temp. Dew Point Humidity Wind Precip. Elev Updated Type
Bates Co EMA, BUTLER, MO 57.8 °F 37 °F 46% East  at  2.0 mph 0.00 in / hr 866 ft 9:03 AM CDT Rapid Fire
RAWS CLINTON MO, Clinton, MO 55 °F 38 °F 53% ESE  at  4 mph 0.00 in / hr 759 ft 8:13 AM CDT MADIS
Nurse Laura, Adrian, MO 59.7 °F 23 °F 24% SSE  at  2.0 mph 0.00 in / hr 863 ft 9:03 AM CDT Normal

Show More Stations Show Fewer Stations

What do you think?

We're not finished. Please let us know what you like, what you don't like, and what you are still missing.